createdAt,value
2022-10-01T00:00:38.997Z,54.24
2022-10-01T00:01:38.979Z,52.40
2022-10-01T00:02:39.142Z,51.61
2022-10-01T00:03:38.979Z,54.31
2022-10-01T00:04:38.954Z,53.96
2022-10-01T00:05:39.058Z,52.12
2022-10-01T00:06:39.019Z,51.28
2022-10-01T00:07:39.113Z,52.74
2022-10-01T00:08:39.010Z,52.12
2022-10-01T00:09:39.030Z,53.24
2022-10-01T00:10:38.992Z,52.85
2022-10-01T00:11:39.097Z,53.70
2022-10-01T00:12:39.004Z,52.68
2022-10-01T00:13:38.960Z,53.12
2022-10-01T00:14:39.050Z,53.50
2022-10-01T00:15:39.047Z,49.53
2022-10-01T00:16:39.170Z,48.82
2022-10-01T00:17:38.959Z,49.84
2022-10-01T00:18:38.852Z,52.93
2022-10-01T00:19:38.857Z,50.01
2022-10-01T00:20:38.981Z,50.77
2022-10-01T00:21:38.858Z,51.34
2022-10-01T00:22:38.890Z,51.14
2022-10-01T00:23:38.827Z,54.17
2022-10-01T00:24:38.908Z,51.95
2022-10-01T00:25:38.884Z,51.22
2022-10-01T00:26:38.862Z,52.10
2022-10-01T00:27:38.928Z,51.40
2022-10-01T00:28:38.875Z,51.77
2022-10-01T00:29:38.901Z,49.80
2022-10-01T00:30:40.523Z,50.36
2022-10-01T00:31:40.086Z,54.01
2022-10-01T00:32:38.847Z,54.93
2022-10-01T00:33:38.931Z,55.22
2022-10-01T00:34:38.828Z,54.13
2022-10-01T00:35:38.829Z,53.00
2022-10-01T00:36:38.823Z,53.35
2022-10-01T00:37:38.805Z,53.30
2022-10-01T00:38:38.797Z,54.40
2022-10-01T00:39:38.696Z,56.04
2022-10-01T00:40:38.800Z,53.92
2022-10-01T00:41:38.821Z,53.24
2022-10-01T00:42:38.786Z,55.96
2022-10-01T00:43:38.964Z,52.47
2022-10-01T00:44:38.738Z,53.27
2022-10-01T00:45:38.808Z,52.46
2022-10-01T00:46:38.832Z,53.52
2022-10-01T00:47:38.744Z,54.30
2022-10-01T00:48:38.733Z,51.83
2022-10-01T00:49:38.786Z,53.33
2022-10-01T00:50:38.737Z,51.18
2022-10-01T00:51:38.707Z,50.91
2022-10-01T00:52:38.679Z,52.40
2022-10-01T00:53:38.598Z,53.31
2022-10-01T00:54:38.662Z,51.73
2022-10-01T00:55:38.629Z,54.06
2022-10-01T00:56:38.577Z,52.26
2022-10-01T00:57:38.600Z,51.98
2022-10-01T00:58:38.582Z,50.80
2022-10-01T00:59:39.868Z,50.39
2022-10-01T01:00:38.699Z,52.86
2022-10-01T01:01:38.763Z,52.33
2022-10-01T01:02:38.801Z,50.86
2022-10-01T01:03:38.638Z,51.18
2022-10-01T01:04:38.637Z,51.42
2022-10-01T01:05:38.674Z,51.76
2022-10-01T01:06:38.648Z,52.65
2022-10-01T01:07:38.639Z,56.24
2022-10-01T01:08:38.636Z,52.26
2022-10-01T01:09:39.667Z,51.87
2022-10-01T01:10:38.582Z,51.99
2022-10-01T01:11:38.549Z,51.73
2022-10-01T01:12:38.576Z,49.83
2022-10-01T01:13:38.470Z,51.63
2022-10-01T01:14:38.451Z,52.91
2022-10-01T01:15:38.521Z,53.86
2022-10-01T01:16:38.486Z,54.07
2022-10-01T01:17:38.491Z,54.20
2022-10-01T01:18:38.430Z,51.04
2022-10-01T01:19:38.464Z,53.02
2022-10-01T01:20:38.453Z,52.71
2022-10-01T01:21:38.491Z,54.20
2022-10-01T01:22:38.514Z,55.86
2022-10-01T01:23:38.507Z,55.99
2022-10-01T01:24:38.464Z,54.58
2022-10-01T01:25:38.489Z,51.31
2022-10-01T01:26:38.534Z,51.86
2022-10-01T01:27:38.592Z,54.87
2022-10-01T01:28:38.520Z,52.73
2022-10-01T01:29:38.502Z,51.56
2022-10-01T01:30:38.465Z,51.19
2022-10-01T01:31:38.641Z,50.85
2022-10-01T01:32:38.504Z,53.38
2022-10-01T01:33:38.411Z,51.44
2022-10-01T01:34:38.406Z,54.49
2022-10-01T01:35:38.313Z,54.93
2022-10-01T01:36:38.324Z,53.16
2022-10-01T01:37:38.412Z,50.46
2022-10-01T01:38:38.360Z,52.73
2022-10-01T01:39:38.364Z,52.76
2022-10-01T01:40:38.378Z,54.25
2022-10-01T01:41:38.393Z,53.00
2022-10-01T01:42:38.362Z,54.92
2022-10-01T01:43:38.388Z,52.99
2022-10-01T01:44:38.406Z,54.37
2022-10-01T01:45:38.400Z,54.60
2022-10-01T01:46:38.362Z,53.46
2022-10-01T01:47:38.333Z,55.18
2022-10-01T01:48:38.379Z,54.37
2022-10-01T01:49:38.371Z,54.16
2022-10-01T01:50:38.352Z,56.39
2022-10-01T01:51:38.223Z,54.72
2022-10-01T01:52:38.182Z,56.11
2022-10-01T01:53:38.304Z,53.39
2022-10-01T01:54:38.209Z,53.62
2022-10-01T01:55:38.247Z,54.58
2022-10-01T01:56:38.212Z,53.04
2022-10-01T01:57:38.286Z,51.37
2022-10-01T01:58:38.241Z,52.27
2022-10-01T01:59:38.280Z,53.25
2022-10-01T02:00:38.243Z,52.81
2022-10-01T02:01:38.567Z,52.38
2022-10-01T02:02:38.293Z,53.06
2022-10-01T02:03:38.275Z,51.84
2022-10-01T02:04:38.205Z,51.26
2022-10-01T02:05:38.605Z,50.30
2022-10-01T02:06:38.203Z,51.96
2022-10-01T02:07:38.148Z,54.40
2022-10-01T02:08:38.189Z,51.92
2022-10-01T02:09:38.094Z,50.72
2022-10-01T02:10:38.113Z,53.61
2022-10-01T02:11:38.202Z,50.10
2022-10-01T02:12:38.099Z,52.86
2022-10-01T02:13:39.200Z,52.50
2022-10-01T02:14:38.108Z,52.78
2022-10-01T02:15:38.181Z,52.60
2022-10-01T02:16:38.110Z,53.18
2022-10-01T02:17:38.195Z,50.00
2022-10-01T02:18:38.169Z,49.63
2022-10-01T02:19:38.061Z,52.04
2022-10-01T02:20:38.089Z,52.07
2022-10-01T02:21:38.067Z,51.96
2022-10-01T02:22:38.069Z,50.79
2022-10-01T02:23:38.067Z,52.53
2022-10-01T02:24:38.068Z,51.07
2022-10-01T02:25:38.006Z,50.70
2022-10-01T02:26:37.999Z,50.97
2022-10-01T02:27:37.968Z,52.10
2022-10-01T02:28:38.020Z,51.67
2022-10-01T02:29:37.978Z,52.63
2022-10-01T02:30:37.990Z,51.36
2022-10-01T02:31:38.575Z,50.67
2022-10-01T02:32:38.002Z,53.81
2022-10-01T02:33:38.006Z,53.47
2022-10-01T02:34:38.037Z,54.13
2022-10-01T02:35:37.959Z,54.87
2022-10-01T02:36:38.028Z,52.92
2022-10-01T02:37:37.992Z,53.25
2022-10-01T02:38:38.026Z,55.10
2022-10-01T02:39:37.977Z,52.76
2022-10-01T02:40:37.945Z,52.36
2022-10-01T02:41:37.927Z,53.30
2022-10-01T02:42:37.972Z,55.56
2022-10-01T02:43:42.608Z,54.46
2022-10-01T02:44:39.970Z,52.96
2022-10-01T02:45:37.892Z,54.08
2022-10-01T02:46:37.843Z,54.26
2022-10-01T02:47:37.897Z,54.00
2022-10-01T02:48:37.908Z,53.64
2022-10-01T02:49:37.799Z,53.35
2022-10-01T02:50:37.834Z,54.77
2022-10-01T02:51:37.842Z,56.39
2022-10-01T02:52:37.812Z,56.11
2022-10-01T02:53:37.871Z,52.89
2022-10-01T02:54:37.896Z,52.12
2022-10-01T02:55:37.936Z,54.83
2022-10-01T02:56:45.947Z,55.65
2022-10-01T02:57:38.778Z,56.56
2022-10-01T02:58:37.860Z,52.59
2022-10-01T02:59:37.905Z,53.07
2022-10-01T03:00:37.852Z,53.72
2022-10-01T03:01:38.123Z,54.82
2022-10-01T03:02:37.847Z,56.61
2022-10-01T03:03:37.857Z,54.40
2022-10-01T03:04:37.812Z,54.49
2022-10-01T03:05:37.741Z,53.70
2022-10-01T03:06:37.691Z,53.73
2022-10-01T03:07:37.680Z,54.46
2022-10-01T03:08:37.762Z,55.64
2022-10-01T03:09:37.674Z,54.70
2022-10-01T03:10:37.750Z,55.59
2022-10-01T03:11:37.663Z,54.37
2022-10-01T03:12:38.655Z,53.84
2022-10-01T03:13:37.679Z,55.32
2022-10-01T03:14:37.708Z,52.25
2022-10-01T03:15:37.846Z,52.52
2022-10-01T03:16:37.677Z,52.63
2022-10-01T03:17:37.793Z,52.35
2022-10-01T03:18:37.699Z,52.64
2022-10-01T03:19:37.679Z,52.33
2022-10-01T03:20:37.713Z,52.16
2022-10-01T03:21:37.677Z,52.32
2022-10-01T03:22:37.729Z,52.66
2022-10-01T03:23:37.647Z,54.83
2022-10-01T03:24:37.709Z,52.33
2022-10-01T03:25:37.616Z,53.98
2022-10-01T03:26:37.691Z,52.01
2022-10-01T03:27:37.563Z,52.11
2022-10-01T03:28:37.531Z,55.10
2022-10-01T03:29:37.567Z,54.51
2022-10-01T03:30:37.535Z,53.90
2022-10-01T03:31:37.885Z,54.06
2022-10-01T03:32:37.543Z,53.69
2022-10-01T03:33:37.494Z,53.05
2022-10-01T03:34:37.465Z,52.36
2022-10-01T03:35:37.596Z,52.99
2022-10-01T03:36:37.550Z,52.58
2022-10-01T03:37:37.609Z,53.10
2022-10-01T03:38:37.547Z,50.59
2022-10-01T03:39:37.534Z,51.40
2022-10-01T03:40:37.520Z,53.81
2022-10-01T03:41:37.567Z,52.84
2022-10-01T03:42:37.629Z,52.84
2022-10-01T03:43:37.539Z,53.62
2022-10-01T03:44:37.508Z,55.33
2022-10-01T03:45:37.579Z,55.30
2022-10-01T03:46:37.397Z,53.83
2022-10-01T03:47:37.390Z,50.17
2022-10-01T03:48:37.432Z,51.73
2022-10-01T03:49:37.476Z,52.32
2022-10-01T03:50:37.416Z,55.13
2022-10-01T03:51:37.746Z,51.33
2022-10-01T03:52:37.372Z,52.97
2022-10-01T03:53:37.487Z,52.54
2022-10-01T03:54:37.408Z,51.71
2022-10-01T03:55:37.398Z,52.64
2022-10-01T03:56:37.418Z,56.05
2022-10-01T03:57:37.391Z,55.01
2022-10-01T03:58:37.426Z,53.77
2022-10-01T03:59:37.429Z,54.69
2022-10-01T04:00:37.423Z,53.66
2022-10-01T04:01:37.810Z,53.65
2022-10-01T04:02:37.515Z,51.42
2022-10-01T04:03:37.257Z,49.82
2022-10-01T04:04:37.287Z,52.44
2022-10-01T04:05:37.259Z,56.12
2022-10-01T04:06:37.255Z,54.17
2022-10-01T04:07:37.276Z,53.96
2022-10-01T04:08:37.248Z,53.04
2022-10-01T04:09:37.298Z,53.86
2022-10-01T04:10:37.246Z,53.07
2022-10-01T04:11:37.454Z,54.59
2022-10-01T04:12:37.200Z,55.33
2022-10-01T04:13:37.323Z,56.01
2022-10-01T04:14:37.283Z,54.24
2022-10-01T04:15:37.697Z,52.48
2022-10-01T04:16:37.357Z,56.60
2022-10-01T04:17:37.261Z,55.30
2022-10-01T04:18:37.305Z,57.39
2022-10-01T04:19:37.316Z,56.23
2022-10-01T04:20:37.307Z,54.95
2022-10-01T04:21:37.671Z,55.65
2022-10-01T04:22:58.246Z,55.70
2022-10-01T04:23:37.131Z,57.57
2022-10-01T04:24:38.181Z,57.26
2022-10-01T04:25:37.232Z,56.01
2022-10-01T04:26:37.142Z,57.02
2022-10-01T04:27:37.193Z,57.59
2022-10-01T04:28:37.267Z,56.30
2022-10-01T04:29:40.204Z,58.53
2022-10-01T04:30:38.151Z,58.11
2022-10-01T04:31:37.454Z,57.66
2022-10-01T04:32:37.070Z,56.80
2022-10-01T04:33:37.155Z,57.48
2022-10-01T04:34:37.068Z,56.58
2022-10-01T04:35:37.068Z,56.29
2022-10-01T04:36:37.027Z,55.58
2022-10-01T04:37:37.036Z,55.85
2022-10-01T04:38:37.066Z,57.28
2022-10-01T04:39:37.085Z,58.16
2022-10-01T04:40:37.113Z,56.24
2022-10-01T04:41:37.381Z,56.98
2022-10-01T04:42:37.129Z,55.26
2022-10-01T04:43:37.093Z,57.09
2022-10-01T04:44:36.960Z,56.70
2022-10-01T04:45:37.161Z,55.98
2022-10-01T04:46:37.102Z,54.20
2022-10-01T04:47:37.771Z,54.57
2022-10-01T04:48:38.075Z,55.44
2022-10-01T04:49:37.115Z,55.68
2022-10-01T04:50:36.923Z,56.76
2022-10-01T04:51:37.273Z,53.45
2022-10-01T04:52:37.108Z,55.07
2022-10-01T04:53:36.916Z,57.35
2022-10-01T04:54:37.000Z,55.66
2022-10-01T04:56:14.110Z,55.59
2022-10-01T04:56:37.879Z,59.42
2022-10-01T04:57:37.026Z,56.60
2022-10-01T04:58:36.868Z,55.07
2022-10-01T04:59:36.906Z,54.86
2022-10-01T05:00:36.915Z,54.73
2022-10-01T05:01:37.428Z,54.75
2022-10-01T05:02:36.887Z,55.16
2022-10-01T05:03:36.848Z,54.46
2022-10-01T05:04:36.834Z,54.81
2022-10-01T05:05:36.846Z,56.31
2022-10-01T05:06:36.806Z,54.23
2022-10-01T05:07:36.937Z,53.74
2022-10-01T05:08:36.885Z,54.60
2022-10-01T05:09:36.931Z,55.57
2022-10-01T05:10:36.943Z,53.21
2022-10-01T05:11:37.033Z,55.79
2022-10-01T05:12:36.882Z,55.81
2022-10-01T05:13:36.925Z,55.97
2022-10-01T05:14:36.846Z,57.46
2022-10-01T05:15:36.995Z,56.87
2022-10-01T05:16:36.841Z,58.24
2022-10-01T05:17:36.747Z,58.04
2022-10-01T05:18:37.009Z,58.84
2022-10-01T05:19:36.725Z,57.37
2022-10-01T05:20:36.760Z,56.50
2022-10-01T05:21:37.237Z,57.12
2022-10-01T05:22:36.712Z,57.50
2022-10-01T05:23:36.705Z,57.84
2022-10-01T05:24:36.682Z,58.36
2022-10-01T05:25:36.679Z,56.86
2022-10-01T05:26:36.707Z,55.40
2022-10-01T05:27:36.665Z,56.03
2022-10-01T05:28:36.731Z,56.72
2022-10-01T05:29:36.665Z,57.09
2022-10-01T05:30:36.843Z,58.23
2022-10-01T05:31:37.111Z,57.22
2022-10-01T05:32:36.641Z,57.09
2022-10-01T05:33:36.770Z,56.27
2022-10-01T05:34:36.764Z,56.67
2022-10-01T05:35:36.630Z,58.12
2022-10-01T05:36:36.726Z,56.97
2022-10-01T05:37:36.737Z,56.12
2022-10-01T05:38:36.599Z,55.75
2022-10-01T05:39:36.684Z,55.58
2022-10-01T05:40:36.604Z,56.84
2022-10-01T05:41:36.873Z,57.17
2022-10-01T05:42:36.604Z,56.51
2022-10-01T05:43:36.573Z,56.36
2022-10-01T05:44:36.533Z,56.86
2022-10-01T05:45:36.559Z,57.90
2022-10-01T05:46:36.536Z,58.56
2022-10-01T05:47:36.520Z,57.70
2022-10-01T05:48:36.556Z,56.48
2022-10-01T05:49:36.529Z,58.18
2022-10-01T05:50:36.589Z,58.26
2022-10-01T05:51:36.850Z,56.22
2022-10-01T05:52:36.561Z,55.69
2022-10-01T05:53:36.630Z,55.69
2022-10-01T05:54:36.505Z,58.08
2022-10-01T05:55:36.579Z,59.75
2022-10-01T05:56:36.551Z,57.61
2022-10-01T05:57:36.449Z,56.71
2022-10-01T05:58:36.544Z,57.17
2022-10-01T05:59:36.578Z,56.24
2022-10-01T06:00:36.514Z,58.21
2022-10-01T06:01:36.876Z,60.11
2022-10-01T06:02:36.646Z,59.18
2022-10-01T06:03:36.483Z,59.34
2022-10-01T06:04:41.025Z,57.54
2022-10-01T06:05:37.381Z,58.21
2022-10-01T06:06:36.385Z,57.95
2022-10-01T06:07:36.377Z,59.27
2022-10-01T06:08:36.487Z,62.55
2022-10-01T06:09:36.365Z,62.61
2022-10-01T06:10:36.548Z,60.79
2022-10-01T06:11:36.841Z,60.70
2022-10-01T06:12:36.358Z,59.53
2022-10-01T06:13:36.439Z,59.05
2022-10-01T06:14:36.444Z,59.19
2022-10-01T06:15:36.381Z,60.51
2022-10-01T06:16:36.443Z,60.78
2022-10-01T06:17:36.387Z,59.30
2022-10-01T06:18:36.287Z,59.76
2022-10-01T06:19:36.389Z,58.94
2022-10-01T06:20:36.447Z,59.98
2022-10-01T06:21:36.742Z,60.79
2022-10-01T06:22:36.461Z,59.99
2022-10-01T06:23:36.426Z,61.10
2022-10-01T06:24:36.261Z,59.24
2022-10-01T06:25:36.290Z,59.60
2022-10-01T06:26:36.650Z,59.95
2022-10-01T06:27:36.226Z,60.58
2022-10-01T06:28:37.397Z,58.55
2022-10-01T06:29:36.215Z,59.25
2022-10-01T06:30:36.256Z,59.56
2022-10-01T06:31:36.706Z,60.83
2022-10-01T06:32:36.285Z,60.21
2022-10-01T06:33:36.225Z,59.89
2022-10-01T06:34:36.345Z,60.61
2022-10-01T06:35:36.288Z,60.21
2022-10-01T06:36:36.162Z,60.44
2022-10-01T06:37:36.290Z,61.91
2022-10-01T06:38:36.251Z,61.63
2022-10-01T06:39:36.173Z,59.84
2022-10-01T06:40:36.308Z,61.42
2022-10-01T06:41:36.574Z,61.25
2022-10-01T06:42:36.199Z,61.37
2022-10-01T06:43:36.250Z,60.95
2022-10-01T06:44:36.198Z,61.86
2022-10-01T06:45:36.272Z,60.43
2022-10-01T06:46:36.207Z,62.26
2022-10-01T06:47:36.122Z,62.23
2022-10-01T06:48:36.139Z,61.57
2022-10-01T06:49:36.118Z,60.24
2022-10-01T06:50:36.154Z,60.99
2022-10-01T06:51:36.408Z,63.93
2022-10-01T06:52:36.080Z,60.00
2022-10-01T06:53:36.114Z,60.80
2022-10-01T06:54:36.127Z,59.35
2022-10-01T06:55:36.165Z,60.41
2022-10-01T06:56:37.130Z,59.54
2022-10-01T06:57:36.056Z,59.45
2022-10-01T06:58:36.130Z,58.67
2022-10-01T06:59:36.219Z,59.24
2022-10-01T07:00:36.009Z,64.00
2022-10-01T07:01:36.493Z,61.53
2022-10-01T07:02:36.149Z,59.16
2022-10-01T07:03:35.999Z,59.16
2022-10-01T07:04:36.136Z,58.69
2022-10-01T07:05:36.036Z,59.87
2022-10-01T07:06:36.047Z,58.13
2022-10-01T07:07:36.049Z,62.76
2022-10-01T07:08:36.034Z,60.24
2022-10-01T07:09:35.990Z,61.09
2022-10-01T07:10:36.048Z,58.38
2022-10-01T07:11:36.317Z,56.16
2022-10-01T07:12:35.969Z,59.15
2022-10-01T07:13:35.922Z,58.94
2022-10-01T07:14:35.874Z,58.70
2022-10-01T07:15:35.938Z,57.96
2022-10-01T07:16:35.987Z,58.91
2022-10-01T07:17:35.894Z,58.09
2022-10-01T07:18:35.852Z,58.75
2022-10-01T07:19:36.896Z,57.95
2022-10-01T07:20:35.889Z,57.63
2022-10-01T07:21:36.536Z,58.42
2022-10-01T07:22:35.886Z,58.97
2022-10-01T07:23:35.945Z,58.92
2022-10-01T07:24:36.013Z,61.48
2022-10-01T07:25:35.968Z,58.91
2022-10-01T07:26:36.135Z,59.97
2022-10-01T07:27:35.894Z,59.76
2022-10-01T07:28:35.927Z,59.63
2022-10-01T07:29:36.008Z,58.21
2022-10-01T07:30:35.832Z,59.22
2022-10-01T07:31:36.232Z,60.39
2022-10-01T07:32:35.901Z,59.40
2022-10-01T07:33:35.785Z,59.14
2022-10-01T07:34:35.838Z,59.86
2022-10-01T07:35:35.843Z,60.03
2022-10-01T07:36:35.781Z,58.84
2022-10-01T07:37:35.891Z,60.21
2022-10-01T07:38:35.853Z,60.37
2022-10-01T07:39:35.752Z,59.80
2022-10-01T07:40:35.916Z,60.10
2022-10-01T07:41:36.143Z,61.07
2022-10-01T07:42:35.741Z,63.77
2022-10-01T07:43:35.775Z,60.25
2022-10-01T07:44:35.734Z,60.88
2022-10-01T07:45:35.744Z,59.16
2022-10-01T07:46:35.722Z,58.69
2022-10-01T07:47:35.716Z,57.71
2022-10-01T07:48:35.707Z,59.18
2022-10-01T07:49:36.975Z,60.44
2022-10-01T07:50:35.801Z,59.39
2022-10-01T07:51:36.082Z,60.54
2022-10-01T07:52:35.751Z,61.00
2022-10-01T07:53:35.801Z,60.51
2022-10-01T07:54:35.647Z,61.17
2022-10-01T07:55:35.600Z,60.87
2022-10-01T07:56:35.737Z,59.37
2022-10-01T07:57:35.729Z,60.01
2022-10-01T07:58:35.726Z,60.69
2022-10-01T07:59:35.771Z,59.39
2022-10-01T08:00:35.706Z,61.16
2022-10-01T08:01:36.083Z,62.92
2022-10-01T08:02:35.710Z,63.07
2022-10-01T08:03:36.618Z,63.26
2022-10-01T08:04:35.636Z,61.20
2022-10-01T08:05:35.681Z,60.16
2022-10-01T08:06:35.658Z,58.94
2022-10-01T08:07:35.674Z,59.27
2022-10-01T08:08:35.614Z,58.46
2022-10-01T08:09:35.601Z,60.78
2022-10-01T08:10:35.696Z,59.05
2022-10-01T08:11:36.042Z,59.22
2022-10-01T08:12:35.616Z,59.42
2022-10-01T08:13:35.605Z,59.08
2022-10-01T08:14:35.585Z,63.27
2022-10-01T08:15:35.608Z,60.45
2022-10-01T08:16:35.614Z,61.21
2022-10-01T08:17:35.582Z,60.30
2022-10-01T08:18:35.586Z,61.43
2022-10-01T08:19:35.581Z,60.13
2022-10-01T08:20:35.454Z,61.21
2022-10-01T08:21:35.899Z,60.24
2022-10-01T08:22:39.763Z,59.60
2022-10-01T08:23:37.453Z,60.85
2022-10-01T08:24:35.462Z,61.28
2022-10-01T08:25:35.426Z,60.52
2022-10-01T08:26:35.841Z,60.06
2022-10-01T08:27:35.410Z,59.13
2022-10-01T08:28:35.464Z,60.14
2022-10-01T08:29:35.482Z,60.47
2022-10-01T08:30:35.546Z,59.31
2022-10-01T08:31:35.786Z,58.60
2022-10-01T08:32:35.537Z,59.89
2022-10-01T08:33:35.509Z,60.65
2022-10-01T08:34:35.485Z,60.07
2022-10-01T08:35:35.446Z,59.28
2022-10-01T08:36:35.437Z,58.47
2022-10-01T08:37:35.486Z,60.03
2022-10-01T08:38:35.487Z,60.69
2022-10-01T08:39:35.436Z,60.46
2022-10-01T08:40:35.434Z,58.39
2022-10-01T08:41:36.184Z,59.30
2022-10-01T08:42:35.280Z,61.00
2022-10-01T08:43:35.330Z,60.84
2022-10-01T08:44:35.294Z,59.59
2022-10-01T08:45:35.494Z,59.09
2022-10-01T08:46:35.302Z,59.18
2022-10-01T08:47:35.253Z,60.10
2022-10-01T08:48:35.415Z,59.14
2022-10-01T08:49:35.352Z,59.51
2022-10-01T08:50:35.327Z,59.81
2022-10-01T08:51:35.629Z,58.98
2022-10-01T08:52:35.328Z,59.17
2022-10-01T08:53:35.329Z,57.47
2022-10-01T08:54:35.377Z,59.31
2022-10-01T08:55:35.452Z,61.20
2022-10-01T08:56:35.277Z,61.58
2022-10-01T08:57:35.335Z,60.63
2022-10-01T08:58:35.292Z,58.57
2022-10-01T08:59:35.360Z,58.54
2022-10-01T09:00:35.248Z,59.21
2022-10-01T09:01:35.494Z,58.83
2022-10-01T09:02:35.204Z,59.18
2022-10-01T09:03:35.141Z,59.47
2022-10-01T09:04:35.323Z,59.33
2022-10-01T09:05:35.349Z,58.41
2022-10-01T09:06:35.317Z,58.88
2022-10-01T09:07:35.238Z,59.87
2022-10-01T09:08:35.284Z,58.98
2022-10-01T09:09:35.231Z,58.29
2022-10-01T09:10:35.307Z,59.46
2022-10-01T09:11:35.476Z,59.23
2022-10-01T09:12:35.195Z,59.66
2022-10-01T09:13:35.169Z,59.27
2022-10-01T09:14:35.193Z,59.74
2022-10-01T09:15:35.185Z,58.74
2022-10-01T09:16:35.279Z,57.99
2022-10-01T09:17:35.155Z,60.32
2022-10-01T09:18:35.569Z,60.51
2022-10-01T09:19:35.129Z,71.88
2022-10-01T09:20:35.120Z,72.62
2022-10-01T09:21:35.454Z,60.59
2022-10-01T09:22:35.032Z,60.94
2022-10-01T09:23:35.152Z,61.86
2022-10-01T09:24:35.142Z,59.71
2022-10-01T09:25:35.158Z,59.81
2022-10-01T09:26:35.110Z,59.92
2022-10-01T09:27:35.432Z,59.39
2022-10-01T09:28:35.119Z,60.02
2022-10-01T09:29:35.155Z,61.44
2022-10-01T09:30:35.131Z,60.18
2022-10-01T09:31:35.356Z,59.41
2022-10-01T09:32:35.197Z,59.33
2022-10-01T09:33:35.110Z,59.29
2022-10-01T09:34:35.076Z,59.56
2022-10-01T09:35:35.041Z,59.59
2022-10-01T09:36:35.106Z,58.77
2022-10-01T09:37:35.102Z,59.43
2022-10-01T09:38:35.087Z,59.94
2022-10-01T09:39:34.946Z,60.13
2022-10-01T09:40:34.933Z,60.66
2022-10-01T09:41:35.215Z,61.15
2022-10-01T09:42:34.911Z,59.97
2022-10-01T09:43:35.150Z,60.68
2022-10-01T09:44:35.015Z,59.09
2022-10-01T09:45:35.247Z,61.16
2022-10-01T09:46:34.967Z,59.58
2022-10-01T09:47:35.330Z,60.71
2022-10-01T09:48:35.279Z,58.19
2022-10-01T09:49:34.957Z,59.13
2022-10-01T09:50:35.006Z,58.61
2022-10-01T09:51:39.387Z,59.82
2022-10-01T09:52:37.043Z,60.54
2022-10-01T09:53:35.062Z,58.97
2022-10-01T09:54:35.092Z,60.69
2022-10-01T09:55:34.819Z,60.32
2022-10-01T09:56:35.115Z,59.58
2022-10-01T09:57:34.768Z,59.49
2022-10-01T09:58:34.841Z,59.15
2022-10-01T09:59:34.934Z,60.18
2022-10-01T10:00:34.773Z,60.00
2022-10-01T10:01:35.229Z,59.82
2022-10-01T10:02:34.858Z,61.05
2022-10-01T10:03:34.995Z,61.28
2022-10-01T10:04:34.914Z,59.50
2022-10-01T10:05:34.928Z,60.37
2022-10-01T10:06:35.185Z,59.90
2022-10-01T10:07:34.935Z,61.29
2022-10-01T10:08:35.193Z,62.06
2022-10-01T10:09:34.838Z,60.93
2022-10-01T10:10:35.003Z,61.82
2022-10-01T10:11:35.332Z,60.65
2022-10-01T10:12:34.845Z,60.74
2022-10-01T10:13:34.799Z,59.77
2022-10-01T10:14:34.802Z,60.85
2022-10-01T10:15:34.843Z,61.78
2022-10-01T10:16:35.438Z,59.57
2022-10-01T10:17:34.752Z,59.74
2022-10-01T10:18:34.735Z,62.43
2022-10-01T10:19:34.733Z,60.52
2022-10-01T10:20:34.760Z,59.87
2022-10-01T10:21:34.679Z,62.19
2022-10-01T10:22:34.709Z,62.37
2022-10-01T10:23:34.642Z,73.31
2022-10-01T10:24:34.600Z,61.28
2022-10-01T10:25:34.681Z,66.62
2022-10-01T10:26:35.232Z,60.90
2022-10-01T10:27:34.625Z,60.10
2022-10-01T10:28:38.308Z,60.76
2022-10-01T10:29:35.690Z,59.59
2022-10-01T10:30:34.761Z,59.84
2022-10-01T10:31:34.776Z,59.63
2022-10-01T10:32:35.185Z,59.57
2022-10-01T10:33:34.893Z,59.73
2022-10-01T10:34:34.620Z,61.65
2022-10-01T10:35:34.666Z,59.75
2022-10-01T10:36:34.851Z,58.79
2022-10-01T10:37:34.629Z,57.38
2022-10-01T10:38:34.613Z,57.92
2022-10-01T10:39:34.641Z,58.95
2022-10-01T10:40:34.483Z,57.34
2022-10-01T10:41:34.701Z,59.56
2022-10-01T10:42:34.662Z,60.74
2022-10-01T10:43:34.589Z,58.86
2022-10-01T10:44:34.519Z,59.96
2022-10-01T10:45:34.588Z,59.98
2022-10-01T10:46:34.673Z,57.59
2022-10-01T10:47:34.670Z,60.51
2022-10-01T10:48:34.645Z,58.17
2022-10-01T10:49:34.514Z,57.76
2022-10-01T10:50:34.530Z,57.95
2022-10-01T10:51:34.652Z,58.41
2022-10-01T10:52:34.504Z,58.38
2022-10-01T10:53:34.512Z,58.38
2022-10-01T10:54:34.526Z,59.72
2022-10-01T10:55:34.398Z,59.10
2022-10-01T10:56:34.586Z,58.13
2022-10-01T10:57:34.386Z,57.77
2022-10-01T10:58:34.478Z,58.91
2022-10-01T10:59:34.516Z,58.96
2022-10-01T11:00:34.566Z,59.66
2022-10-01T11:01:34.649Z,58.92
2022-10-01T11:02:34.376Z,58.43
2022-10-01T11:03:34.448Z,57.29
2022-10-01T11:04:34.417Z,57.48
2022-10-01T11:05:35.096Z,58.27
2022-10-01T11:06:35.131Z,57.21
2022-10-01T11:07:34.535Z,61.10
2022-10-01T11:08:34.560Z,58.68
2022-10-01T11:09:34.358Z,58.20
2022-10-01T11:10:34.535Z,59.23
2022-10-01T11:11:34.491Z,58.86
2022-10-01T11:12:34.338Z,59.31
2022-10-01T11:13:34.494Z,57.21
2022-10-01T11:14:34.487Z,58.32
2022-10-01T11:15:34.455Z,57.83
2022-10-01T11:16:34.772Z,57.48
2022-10-01T11:17:34.240Z,58.34
2022-10-01T11:18:34.207Z,58.38
2022-10-01T11:19:34.322Z,57.37
2022-10-01T11:20:34.337Z,58.29
2022-10-01T11:21:34.347Z,57.09
2022-10-01T11:22:34.329Z,59.38
2022-10-01T11:23:34.480Z,59.95
2022-10-01T11:24:34.352Z,56.77
2022-10-01T11:25:34.253Z,59.19
2022-10-01T11:26:34.541Z,58.02
2022-10-01T11:27:34.265Z,57.43
2022-10-01T11:28:34.237Z,57.42
2022-10-01T11:29:34.265Z,58.24
2022-10-01T11:30:34.293Z,56.98
2022-10-01T11:31:34.282Z,56.90
2022-10-01T11:32:34.279Z,57.17
2022-10-01T11:33:34.169Z,57.58
2022-10-01T11:34:34.168Z,57.58
2022-10-01T11:35:34.165Z,59.11
2022-10-01T11:36:34.347Z,59.30
2022-10-01T11:37:34.400Z,58.69
2022-10-01T11:38:34.119Z,59.31
2022-10-01T11:39:34.189Z,55.39
2022-10-01T11:40:34.197Z,57.49
2022-10-01T11:41:34.174Z,58.31
2022-10-01T11:42:34.141Z,59.14
2022-10-01T11:43:34.222Z,58.62
2022-10-01T11:44:34.113Z,57.38
2022-10-01T11:45:35.184Z,58.10
2022-10-01T11:46:34.564Z,58.05
2022-10-01T11:47:34.144Z,58.81
2022-10-01T11:48:34.195Z,57.53
2022-10-01T11:49:34.147Z,57.08
2022-10-01T11:50:38.521Z,59.20
2022-10-01T11:51:36.250Z,57.80
2022-10-01T11:52:34.126Z,57.45
2022-10-01T11:53:34.117Z,61.18
2022-10-01T11:54:33.981Z,60.29
2022-10-01T11:55:33.979Z,61.76
2022-10-01T11:56:34.181Z,58.51
2022-10-01T11:57:33.961Z,59.13
2022-10-01T11:58:33.916Z,58.70
2022-10-01T11:59:33.957Z,58.89
2022-10-01T12:00:33.933Z,57.94
2022-10-01T12:01:33.949Z,58.47
2022-10-01T12:02:33.893Z,59.17
2022-10-01T12:03:34.017Z,59.26
2022-10-01T12:04:33.960Z,58.31
2022-10-01T12:05:34.259Z,58.53
2022-10-01T12:06:34.390Z,59.78
2022-10-01T12:07:34.949Z,61.66
2022-10-01T12:08:33.989Z,60.33
2022-10-01T12:09:34.006Z,59.58
2022-10-01T12:10:34.071Z,59.49
2022-10-01T12:11:33.941Z,58.68
2022-10-01T12:12:34.052Z,58.82
2022-10-01T12:13:34.479Z,57.95
2022-10-01T12:14:33.900Z,61.71
2022-10-01T12:15:33.910Z,59.04
2022-10-01T12:16:34.317Z,59.19
2022-10-01T12:17:33.918Z,57.17
2022-10-01T12:18:33.902Z,56.91
2022-10-01T12:19:33.971Z,57.43
2022-10-01T12:20:33.959Z,59.77
2022-10-01T12:21:34.288Z,59.45
2022-10-01T12:22:33.853Z,58.31
2022-10-01T12:23:33.907Z,59.15
2022-10-01T12:24:33.970Z,59.14
2022-10-01T12:25:34.054Z,58.56
2022-10-01T12:26:34.375Z,58.09
2022-10-01T12:27:34.133Z,56.26
2022-10-01T12:28:33.885Z,58.83
2022-10-01T12:29:33.987Z,58.62
2022-10-01T12:30:33.841Z,58.80
2022-10-01T12:31:33.879Z,59.01
2022-10-01T13:49:20.516Z,57.97
2022-10-01T13:50:20.502Z,57.74
2022-10-01T13:51:20.625Z,54.89
2022-10-01T13:52:21.193Z,54.45
2022-10-01T13:53:20.457Z,54.63
2022-10-01T13:54:20.373Z,55.04
2022-10-01T13:55:20.372Z,55.70
2022-10-01T13:56:20.366Z,56.10
2022-10-01T13:57:20.386Z,54.88
2022-10-01T13:58:20.432Z,54.05
2022-10-01T13:59:20.511Z,57.61
2022-10-01T14:00:20.813Z,56.65
2022-10-01T14:01:24.005Z,57.51
2022-10-01T14:02:21.428Z,58.57
2022-10-01T14:03:20.311Z,57.74
2022-10-01T14:04:20.498Z,56.17
2022-10-01T14:05:20.381Z,55.29
2022-10-01T14:06:20.432Z,57.98
2022-10-01T14:07:20.397Z,58.12
2022-10-01T14:08:20.456Z,56.52
2022-10-01T14:09:20.461Z,56.17